• Join FlightAware (Why Join?)
  • Login
  • US Flag 
06:42AM EST


 

Airport Tracker/Info


-or-


 

Live Flight TrackerFlight Track Log ✈ MTN8474 ✈ 19-Aug-2013 ✈ KPKB - KLCK

Flight Track Log - Related Links

Times and Time Zones

All times are in EDT time to prevent confusion due to time zone crossing. See the MTN8474 flight status page for this flight to view local times or setup timezone preferences in your user account.

Time Position Orientation Groundspeed Altitude Reporting Facility
EDT Latitude Longitude Course Direction KTS MPH feet Rate Location/Type
09:04PM 39.3542 -81.4744 291° West 118 136 1,900  Level Indianapolis Center
09:05PM 39.3697 -81.5167 295° West 128 147 2,900 1,020 Climbing Indianapolis Center
09:06PM 39.3839 -81.5603 293° West 130 150 4,000 1,020 Climbing Indianapolis Center
09:07PM 39.3978 -81.6022 293° West 129 148 5,000 960 Climbing Indianapolis Center
09:08PM 39.4299 -81.7047 290° West  Level FlightAware Approximate
09:08PM 39.4103 -81.6442 291° West 126 145 6,000  Level Indianapolis Center
09:09PM 39.4441 -81.7534 291° West  Level FlightAware Approximate
09:09PM 39.4261 -81.6931 293° West 142 163 6,000  Level Indianapolis Center
09:10PM 39.4584 -81.8020 291° West  Level FlightAware Approximate
09:10PM 39.4422 -81.7436 292° West 151 174 6,000  Level Indianapolis Center
09:11PM 39.4586 -81.7911 294° West 147 169 6,000  Level Indianapolis Center
09:12PM 39.4750 -81.8408 293° West 149 171 6,000  Level Indianapolis Center
09:14PM 39.4906 -81.8906 292° West 149 171 6,000 -120 Level Indianapolis Center
09:14PM 39.5017 -81.9228 294° West 150 173 5,900  Descending Indianapolis Center
09:15PM 39.5092 -81.9506 289° West 149 171 6,000  Climbing Indianapolis Center
09:15PM 39.5181 -81.9739 296° West 148 170 5,900  Descending Indianapolis Center
09:16PM 39.5247 -81.9989 289° West 147 169 6,000  Climbing Indianapolis Center
09:16PM 39.5325 -82.0247 291° West 148 170 5,900  Descending Indianapolis Center
09:17PM 39.5419 -82.0483 297° West 149 171 6,000 60 Climbing Indianapolis Center
09:18PM 39.5550 -82.0981 289° West 146 168 6,000  Level Indianapolis Center
09:19PM 39.5692 -82.1428 292° West 147 169 6,000  Level Indianapolis Center
09:20PM 39.5886 -82.2000 294° West 148 170 6,000  Level Indianapolis Center
09:21PM 39.6028 -82.2483 291° West 144 166 6,000  Level Indianapolis Center
09:22PM 39.6189 -82.2975 293° West 146 168 6,000 -120 Level Indianapolis Center
09:23PM 39.6333 -82.3475 291° West 147 169 5,800 -360 Descending Indianapolis Center
09:24PM 39.6506 -82.3992 293° West 153 176 5,300 -600 Descending Indianapolis Center
09:25PM 39.6669 -82.4539 291° West 159 183 4,700 -540 Descending Indianapolis Center
09:26PM 39.6847 -82.5089 293° West 164 189 4,200 -540 Descending Indianapolis Center
09:27PM 39.7019 -82.5642 292° West 165 190 3,600 -540 Descending Indianapolis Center
09:28PM 39.7192 -82.6192 292° West 164 189 3,200 -300 Descending Indianapolis Center
09:29PM 39.7353 -82.6719 292° West 160 184 3,000 -120 Descending Indianapolis Center
09:30PM 39.7547 -82.7194 298° West 153 176 3,000  Level Indianapolis Center
09:31PM 39.7753 -82.7664 300° West 150 173 3,000 -120 Level Indianapolis Center
09:32PM 39.7961 -82.8133 300° West 149 171 2,800 -540 Descending Indianapolis Center
09:33PM 39.8222 -82.8717 300° West 155 178 2,000 -840 Descending Indianapolis Center
09:34PM 39.8322 -82.9067 290° West 147 169 1,200 -600 Descending Indianapolis Center
09:35PM 39.8131 -82.9328 226° Southwest 135 155 900 -300 Descending Indianapolis Center